Belem de Sao Francisco, Brazil
Current Conditions -  °F | °C
As of 7:00 PM on Thursday 18 Dec 2014 (Local Time) from SBUF Reporting Station
Clear Clear  
Wind Chill: 84°   Ceiling: Unl
Heat Index: 87°   Visibility: 6mi
Dew Point: 68°   Wind: 8mph
Humidity: 58%   Direction: 120°ESE
Pressure: 29.88"   Gusts: NA
Location:  8.75°S, 38.97°W
Report Text: SBUF 182200Z 12007KT CAVOK 29/20 Q1012
Loading
Personal Weather Stations






























Interactive Weather Map New forecast layout! Learn more

10-Day Weather Forecast

Advertisements
Track Severe Weather on mobile